sensor_id;sensor_type;location;lat;lon;timestamp;P1;durP1;ratioP1;P2;durP2;ratioP2
29984;SDS011;17387;42.690;23.328;2023-07-16T00:00:45;15.18;;;10.40;;
29984;SDS011;17387;42.690;23.328;2023-07-16T00:03:10;16.08;;;10.13;;
29984;SDS011;17387;42.690;23.328;2023-07-16T00:05:36;18.27;;;10.35;;
29984;SDS011;17387;42.690;23.328;2023-07-16T00:08:01;13.43;;;10.02;;
29984;SDS011;17387;42.690;23.328;2023-07-16T00:10:26;16.25;;;10.32;;
29984;SDS011;17387;42.690;23.328;2023-07-16T00:12:52;13.93;;;9.98;;
29984;SDS011;17387;42.690;23.328;2023-07-16T00:15:17;15.50;;;10.10;;
29984;SDS011;17387;42.690;23.328;2023-07-16T00:17:42;15.77;;;9.60;;
29984;SDS011;17387;42.690;23.328;2023-07-16T00:20:08;17.67;;;10.23;;
29984;SDS011;17387;42.690;23.328;2023-07-16T00:22:34;12.68;;;9.68;;
29984;SDS011;17387;42.690;23.328;2023-07-16T00:24:59;14.50;;;9.70;;
29984;SDS011;17387;42.690;23.328;2023-07-16T00:27:24;11.77;;;9.50;;
29984;SDS011;17387;42.690;23.328;2023-07-16T00:29:49;13.00;;;9.13;;
29984;SDS011;17387;42.690;23.328;2023-07-16T00:32:15;12.73;;;8.88;;
29984;SDS011;17387;42.690;23.328;2023-07-16T00:34:40;16.08;;;9.25;;
29984;SDS011;17387;42.690;23.328;2023-07-16T00:37:05;13.97;;;9.33;;
29984;SDS011;17387;42.690;23.328;2023-07-16T00:39:31;14.00;;;8.60;;
29984;SDS011;17387;42.690;23.328;2023-07-16T00:41:56;12.25;;;8.32;;
29984;SDS011;17387;42.690;23.328;2023-07-16T00:44:21;13.80;;;8.93;;
29984;SDS011;17387;42.690;23.328;2023-07-16T00:46:47;11.93;;;8.90;;
29984;SDS011;17387;42.690;23.328;2023-07-16T00:49:12;12.43;;;8.60;;
29984;SDS011;17387;42.690;23.328;2023-07-16T00:51:37;12.20;;;7.90;;
29984;SDS011;17387;42.690;23.328;2023-07-16T00:54:03;12.88;;;7.95;;
29984;SDS011;17387;42.690;23.328;2023-07-16T00:56:28;16.60;;;8.63;;
29984;SDS011;17387;42.690;23.328;2023-07-16T00:58:54;13.48;;;8.55;;
29984;SDS011;17387;42.690;23.328;2023-07-16T01:01:19;9.90;;;7.00;;
29984;SDS011;17387;42.690;23.328;2023-07-16T01:03:44;11.23;;;7.67;;
29984;SDS011;17387;42.690;23.328;2023-07-16T01:06:11;11.85;;;7.70;;
29984;SDS011;17387;42.690;23.328;2023-07-16T01:08:45;18.05;;;7.68;;
29984;SDS011;17387;42.690;23.328;2023-07-16T01:11:11;13.52;;;7.55;;
29984;SDS011;17387;42.690;23.328;2023-07-16T01:13:37;12.52;;;7.75;;
29984;SDS011;17387;42.690;23.328;2023-07-16T01:16:02;15.13;;;7.53;;
29984;SDS011;17387;42.690;23.328;2023-07-16T01:18:28;7.90;;;6.78;;
29984;SDS011;17387;42.690;23.328;2023-07-16T01:20:53;11.07;;;7.72;;
29984;SDS011;17387;42.690;23.328;2023-07-16T01:23:26;8.73;;;7.45;;
29984;SDS011;17387;42.690;23.328;2023-07-16T01:30:51;9.30;;;7.28;;
29984;SDS011;17387;42.690;23.328;2023-07-16T01:33:17;13.95;;;7.57;;
29984;SDS011;17387;42.690;23.328;2023-07-16T01:35:43;9.30;;;6.93;;
29984;SDS011;17387;42.690;23.328;2023-07-16T01:38:10;11.05;;;7.45;;
29984;SDS011;17387;42.690;23.328;2023-07-16T01:40:35;10.40;;;6.97;;
29984;SDS011;17387;42.690;23.328;2023-07-16T01:43:01;8.67;;;6.80;;
29984;SDS011;17387;42.690;23.328;2023-07-16T01:45:26;8.47;;;7.10;;
29984;SDS011;17387;42.690;23.328;2023-07-16T01:47:55;11.77;;;7.63;;
29984;SDS011;17387;42.690;23.328;2023-07-16T01:50:24;9.40;;;7.15;;
29984;SDS011;17387;42.690;23.328;2023-07-16T01:52:49;9.60;;;7.07;;
29984;SDS011;17387;42.690;23.328;2023-07-16T01:55:14;17.73;;;8.07;;
29984;SDS011;17387;42.690;23.328;2023-07-16T01:57:40;13.88;;;6.85;;
29984;SDS011;17387;42.690;23.328;2023-07-16T02:00:05;10.63;;;7.10;;
29984;SDS011;17387;42.690;23.328;2023-07-16T02:02:31;11.20;;;7.43;;
29984;SDS011;17387;42.690;23.328;2023-07-16T02:04:56;11.73;;;6.50;;
29984;SDS011;17387;42.690;23.328;2023-07-16T02:07:21;8.73;;;6.53;;
29984;SDS011;17387;42.690;23.328;2023-07-16T02:09:48;10.93;;;7.00;;
29984;SDS011;17387;42.690;23.328;2023-07-16T02:12:13;9.98;;;7.22;;
29984;SDS011;17387;42.690;23.328;2023-07-16T02:14:39;11.00;;;6.40;;
29984;SDS011;17387;42.690;23.328;2023-07-16T02:17:04;11.03;;;7.20;;
29984;SDS011;17387;42.690;23.328;2023-07-16T02:19:29;12.75;;;7.20;;
29984;SDS011;17387;42.690;23.328;2023-07-16T02:21:55;10.23;;;7.25;;
29984;SDS011;17387;42.690;23.328;2023-07-16T02:24:20;13.17;;;7.93;;
29984;SDS011;17387;42.690;23.328;2023-07-16T02:26:45;14.30;;;8.10;;
29984;SDS011;17387;42.690;23.328;2023-07-16T02:29:10;12.93;;;8.32;;
29984;SDS011;17387;42.690;23.328;2023-07-16T02:31:36;12.73;;;8.50;;
29984;SDS011;17387;42.690;23.328;2023-07-16T02:34:01;11.75;;;8.80;;
29984;SDS011;17387;42.690;23.328;2023-07-16T02:36:27;10.50;;;8.65;;
29984;SDS011;17387;42.690;23.328;2023-07-16T02:38:52;14.07;;;8.77;;
29984;SDS011;17387;42.690;23.328;2023-07-16T02:41:17;8.80;;;7.87;;
29984;SDS011;17387;42.690;23.328;2023-07-16T02:43:45;11.00;;;7.50;;
29984;SDS011;17387;42.690;23.328;2023-07-16T02:46:10;10.30;;;7.40;;
29984;SDS011;17387;42.690;23.328;2023-07-16T02:48:36;13.40;;;7.40;;
29984;SDS011;17387;42.690;23.328;2023-07-16T02:51:01;11.02;;;7.53;;
29984;SDS011;17387;42.690;23.328;2023-07-16T02:53:26;10.60;;;6.90;;
29984;SDS011;17387;42.690;23.328;2023-07-16T02:55:51;9.30;;;7.00;;
29984;SDS011;17387;42.690;23.328;2023-07-16T02:58:17;8.10;;;6.33;;
29984;SDS011;17387;42.690;23.328;2023-07-16T03:00:42;16.30;;;7.03;;
29984;SDS011;17387;42.690;23.328;2023-07-16T03:03:07;12.40;;;6.70;;
29984;SDS011;17387;42.690;23.328;2023-07-16T03:05:32;11.93;;;7.00;;
29984;SDS011;17387;42.690;23.328;2023-07-16T03:07:58;10.23;;;6.57;;
29984;SDS011;17387;42.690;23.328;2023-07-16T03:10:23;8.30;;;6.70;;
29984;SDS011;17387;42.690;23.328;2023-07-16T03:12:51;8.80;;;6.13;;
29984;SDS011;17387;42.690;23.328;2023-07-16T03:15:16;11.40;;;6.28;;
29984;SDS011;17387;42.690;23.328;2023-07-16T03:17:42;10.83;;;6.00;;
29984;SDS011;17387;42.690;23.328;2023-07-16T03:20:07;9.67;;;6.63;;
29984;SDS011;17387;42.690;23.328;2023-07-16T03:22:32;7.68;;;6.40;;
29984;SDS011;17387;42.690;23.328;2023-07-16T03:24:58;8.53;;;6.00;;
29984;SDS011;17387;42.690;23.328;2023-07-16T03:27:23;9.48;;;6.75;;
29984;SDS011;17387;42.690;23.328;2023-07-16T03:29:48;9.43;;;6.60;;
29984;SDS011;17387;42.690;23.328;2023-07-16T03:32:13;7.80;;;6.30;;
29984;SDS011;17387;42.690;23.328;2023-07-16T03:34:39;11.50;;;6.23;;
29984;SDS011;17387;42.690;23.328;2023-07-16T03:37:04;12.15;;;6.13;;
29984;SDS011;17387;42.690;23.328;2023-07-16T03:39:29;10.02;;;7.57;;
29984;SDS011;17387;42.690;23.328;2023-07-16T03:41:54;9.03;;;6.73;;
29984;SDS011;17387;42.690;23.328;2023-07-16T03:44:20;11.23;;;6.70;;
29984;SDS011;17387;42.690;23.328;2023-07-16T03:46:45;12.20;;;6.33;;
29984;SDS011;17387;42.690;23.328;2023-07-16T03:49:10;10.00;;;6.67;;
29984;SDS011;17387;42.690;23.328;2023-07-16T03:51:35;7.22;;;6.30;;
29984;SDS011;17387;42.690;23.328;2023-07-16T03:54:01;12.77;;;6.90;;
29984;SDS011;17387;42.690;23.328;2023-07-16T03:56:26;8.20;;;6.25;;
29984;SDS011;17387;42.690;23.328;2023-07-16T03:58:51;8.53;;;6.63;;
29984;SDS011;17387;42.690;23.328;2023-07-16T04:01:16;10.45;;;6.00;;
29984;SDS011;17387;42.690;23.328;2023-07-16T04:03:42;9.48;;;6.43;;
29984;SDS011;17387;42.690;23.328;2023-07-16T04:06:08;9.10;;;6.13;;
29984;SDS011;17387;42.690;23.328;2023-07-16T04:08:37;9.43;;;6.90;;
29984;SDS011;17387;42.690;23.328;2023-07-16T04:11:05;9.93;;;6.60;;
29984;SDS011;17387;42.690;23.328;2023-07-16T04:13:30;11.52;;;6.78;;
29984;SDS011;17387;42.690;23.328;2023-07-16T04:15:56;8.75;;;7.00;;
29984;SDS011;17387;42.690;23.328;2023-07-16T04:18:22;12.13;;;6.78;;
29984;SDS011;17387;42.690;23.328;2023-07-16T04:20:48;10.23;;;7.63;;
29984;SDS011;17387;42.690;23.328;2023-07-16T04:23:13;14.23;;;7.68;;
29984;SDS011;17387;42.690;23.328;2023-07-16T04:25:38;9.82;;;7.72;;
29984;SDS011;17387;42.690;23.328;2023-07-16T04:28:03;13.67;;;8.00;;
29984;SDS011;17387;42.690;23.328;2023-07-16T04:30:29;10.35;;;7.68;;
29984;SDS011;17387;42.690;23.328;2023-07-16T04:32:54;10.20;;;7.03;;
29984;SDS011;17387;42.690;23.328;2023-07-16T04:35:19;12.33;;;6.80;;
29984;SDS011;17387;42.690;23.328;2023-07-16T04:37:45;13.60;;;7.55;;
29984;SDS011;17387;42.690;23.328;2023-07-16T04:40:10;9.02;;;6.78;;
29984;SDS011;17387;42.690;23.328;2023-07-16T04:42:35;10.27;;;8.38;;
29984;SDS011;17387;42.690;23.328;2023-07-16T04:45:01;12.60;;;8.97;;
29984;SDS011;17387;42.690;23.328;2023-07-16T04:47:26;13.95;;;9.05;;
29984;SDS011;17387;42.690;23.328;2023-07-16T04:49:51;16.37;;;8.87;;
29984;SDS011;17387;42.690;23.328;2023-07-16T04:52:16;11.40;;;8.18;;
29984;SDS011;17387;42.690;23.328;2023-07-16T04:54:42;11.18;;;8.23;;
29984;SDS011;17387;42.690;23.328;2023-07-16T04:57:07;10.63;;;7.22;;
29984;SDS011;17387;42.690;23.328;2023-07-16T04:59:32;11.13;;;7.43;;
29984;SDS011;17387;42.690;23.328;2023-07-16T05:01:58;9.88;;;7.10;;
29984;SDS011;17387;42.690;23.328;2023-07-16T05:04:23;10.45;;;7.22;;
29984;SDS011;17387;42.690;23.328;2023-07-16T05:06:48;10.13;;;7.00;;
29984;SDS011;17387;42.690;23.328;2023-07-16T05:09:13;8.67;;;6.80;;
29984;SDS011;17387;42.690;23.328;2023-07-16T05:11:39;10.80;;;6.83;;
29984;SDS011;17387;42.690;23.328;2023-07-16T05:14:04;9.45;;;6.30;;
29984;SDS011;17387;42.690;23.328;2023-07-16T05:16:29;8.43;;;6.70;;
29984;SDS011;17387;42.690;23.328;2023-07-16T05:18:54;7.67;;;6.10;;
29984;SDS011;17387;42.690;23.328;2023-07-16T05:21:20;11.57;;;6.23;;
29984;SDS011;17387;42.690;23.328;2023-07-16T05:23:45;9.83;;;6.50;;
29984;SDS011;17387;42.690;23.328;2023-07-16T05:26:10;9.67;;;6.63;;
29984;SDS011;17387;42.690;23.328;2023-07-16T05:28:35;11.97;;;6.57;;
29984;SDS011;17387;42.690;23.328;2023-07-16T05:31:01;13.82;;;7.03;;
29984;SDS011;17387;42.690;23.328;2023-07-16T05:33:27;11.40;;;6.43;;
29984;SDS011;17387;42.690;23.328;2023-07-16T05:35:52;11.38;;;6.90;;
29984;SDS011;17387;42.690;23.328;2023-07-16T05:38:24;15.27;;;6.70;;
29984;SDS011;17387;42.690;23.328;2023-07-16T05:40:50;10.48;;;6.22;;
29984;SDS011;17387;42.690;23.328;2023-07-16T05:43:15;10.63;;;6.30;;
29984;SDS011;17387;42.690;23.328;2023-07-16T05:45:40;9.25;;;6.00;;
29984;SDS011;17387;42.690;23.328;2023-07-16T05:48:06;10.10;;;5.95;;
29984;SDS011;17387;42.690;23.328;2023-07-16T05:50:31;11.20;;;6.50;;
29984;SDS011;17387;42.690;23.328;2023-07-16T05:52:56;9.63;;;6.00;;
29984;SDS011;17387;42.690;23.328;2023-07-16T05:55:21;7.03;;;6.30;;
29984;SDS011;17387;42.690;23.328;2023-07-16T05:57:46;9.87;;;6.10;;
29984;SDS011;17387;42.690;23.328;2023-07-16T06:00:12;9.07;;;5.65;;
29984;SDS011;17387;42.690;23.328;2023-07-16T06:02:38;11.75;;;5.40;;
29984;SDS011;17387;42.690;23.328;2023-07-16T06:05:03;7.93;;;5.97;;
29984;SDS011;17387;42.690;23.328;2023-07-16T06:07:29;8.05;;;6.07;;
29984;SDS011;17387;42.690;23.328;2023-07-16T06:09:54;7.45;;;5.82;;
29984;SDS011;17387;42.690;23.328;2023-07-16T06:12:22;7.70;;;5.72;;
29984;SDS011;17387;42.690;23.328;2023-07-16T06:14:47;8.30;;;6.13;;
29984;SDS011;17387;42.690;23.328;2023-07-16T06:17:12;6.43;;;5.73;;
29984;SDS011;17387;42.690;23.328;2023-07-16T06:19:38;6.90;;;5.82;;
29984;SDS011;17387;42.690;23.328;2023-07-16T06:22:03;6.60;;;5.60;;
29984;SDS011;17387;42.690;23.328;2023-07-16T06:24:33;8.23;;;5.97;;
29984;SDS011;17387;42.690;23.328;2023-07-16T06:26:59;8.18;;;5.63;;
29984;SDS011;17387;42.690;23.328;2023-07-16T06:29:24;6.25;;;5.63;;
29984;SDS011;17387;42.690;23.328;2023-07-16T06:31:59;6.40;;;5.70;;
29984;SDS011;17387;42.690;23.328;2023-07-16T06:34:24;9.45;;;6.10;;
29984;SDS011;17387;42.690;23.328;2023-07-16T06:36:52;13.45;;;5.85;;
29984;SDS011;17387;42.690;23.328;2023-07-16T06:39:20;7.17;;;5.87;;
29984;SDS011;17387;42.690;23.328;2023-07-16T06:41:45;16.33;;;6.90;;
29984;SDS011;17387;42.690;23.328;2023-07-16T06:44:10;7.05;;;5.70;;
29984;SDS011;17387;42.690;23.328;2023-07-16T06:46:35;8.20;;;6.00;;
29984;SDS011;17387;42.690;23.328;2023-07-16T06:49:01;9.03;;;5.90;;
29984;SDS011;17387;42.690;23.328;2023-07-16T06:51:26;8.67;;;5.87;;
29984;SDS011;17387;42.690;23.328;2023-07-16T06:53:53;8.55;;;6.35;;
29984;SDS011;17387;42.690;23.328;2023-07-16T06:56:18;7.30;;;5.47;;
29984;SDS011;17387;42.690;23.328;2023-07-16T06:58:44;8.77;;;6.10;;
29984;SDS011;17387;42.690;23.328;2023-07-16T07:01:09;8.97;;;6.23;;
29984;SDS011;17387;42.690;23.328;2023-07-16T07:03:34;11.17;;;6.10;;
29984;SDS011;17387;42.690;23.328;2023-07-16T07:06:02;10.02;;;6.63;;
29984;SDS011;17387;42.690;23.328;2023-07-16T07:08:30;7.60;;;5.28;;
29984;SDS011;17387;42.690;23.328;2023-07-16T07:10:55;12.15;;;7.97;;
29984;SDS011;17387;42.690;23.328;2023-07-16T07:13:21;10.90;;;6.20;;
29984;SDS011;17387;42.690;23.328;2023-07-16T07:15:46;14.50;;;9.73;;
29984;SDS011;17387;42.690;23.328;2023-07-16T07:18:11;8.67;;;6.03;;
29984;SDS011;17387;42.690;23.328;2023-07-16T07:20:36;15.60;;;10.18;;
29984;SDS011;17387;42.690;23.328;2023-07-16T07:23:02;9.38;;;6.03;;
29984;SDS011;17387;42.690;23.328;2023-07-16T07:25:28;8.30;;;6.30;;
29984;SDS011;17387;42.690;23.328;2023-07-16T07:27:53;7.68;;;5.78;;
29984;SDS011;17387;42.690;23.328;2023-07-16T07:30:18;12.43;;;6.47;;
29984;SDS011;17387;42.690;23.328;2023-07-16T07:32:44;9.52;;;7.15;;
29984;SDS011;17387;42.690;23.328;2023-07-16T07:35:09;13.45;;;7.25;;
29984;SDS011;17387;42.690;23.328;2023-07-16T07:37:35;8.13;;;5.70;;
29984;SDS011;17387;42.690;23.328;2023-07-16T07:40:00;8.10;;;5.40;;
29984;SDS011;17387;42.690;23.328;2023-07-16T07:42:25;11.60;;;6.72;;
29984;SDS011;17387;42.690;23.328;2023-07-16T07:44:52;10.73;;;6.50;;
29984;SDS011;17387;42.690;23.328;2023-07-16T07:47:17;8.00;;;5.75;;
29984;SDS011;17387;42.690;23.328;2023-07-16T07:49:42;8.63;;;5.40;;
29984;SDS011;17387;42.690;23.328;2023-07-16T07:52:07;10.13;;;5.83;;
29984;SDS011;17387;42.690;23.328;2023-07-16T07:54:33;7.63;;;5.60;;
29984;SDS011;17387;42.690;23.328;2023-07-16T07:57:00;9.10;;;5.47;;
29984;SDS011;17387;42.690;23.328;2023-07-16T07:59:25;9.75;;;5.38;;
29984;SDS011;17387;42.690;23.328;2023-07-16T08:01:50;9.20;;;7.07;;
29984;SDS011;17387;42.690;23.328;2023-07-16T08:04:18;12.07;;;6.73;;
29984;SDS011;17387;42.690;23.328;2023-07-16T08:06:43;19.17;;;7.93;;
29984;SDS011;17387;42.690;23.328;2023-07-16T08:09:09;9.70;;;6.63;;
29984;SDS011;17387;42.690;23.328;2023-07-16T08:11:34;9.27;;;8.27;;
29984;SDS011;17387;42.690;23.328;2023-07-16T08:14:08;11.30;;;7.97;;
29984;SDS011;17387;42.690;23.328;2023-07-16T08:16:33;12.18;;;8.77;;
29984;SDS011;17387;42.690;23.328;2023-07-16T08:18:58;8.50;;;7.20;;
29984;SDS011;17387;42.690;23.328;2023-07-16T08:21:26;13.15;;;7.25;;
29984;SDS011;17387;42.690;23.328;2023-07-16T08:23:51;11.98;;;6.75;;
29984;SDS011;17387;42.690;23.328;2023-07-16T08:26:17;8.02;;;7.00;;
29984;SDS011;17387;42.690;23.328;2023-07-16T08:28:42;8.10;;;7.28;;
29984;SDS011;17387;42.690;23.328;2023-07-16T08:31:07;12.90;;;9.07;;
29984;SDS011;17387;42.690;23.328;2023-07-16T08:33:33;11.77;;;6.60;;
29984;SDS011;17387;42.690;23.328;2023-07-16T08:35:58;9.82;;;6.95;;
29984;SDS011;17387;42.690;23.328;2023-07-16T08:38:23;11.90;;;6.80;;
29984;SDS011;17387;42.690;23.328;2023-07-16T08:40:48;9.83;;;7.67;;
29984;SDS011;17387;42.690;23.328;2023-07-16T08:43:14;8.83;;;6.50;;
29984;SDS011;17387;42.690;23.328;2023-07-16T08:45:41;12.80;;;8.07;;
29984;SDS011;17387;42.690;23.328;2023-07-16T08:48:09;13.07;;;8.57;;
29984;SDS011;17387;42.690;23.328;2023-07-16T08:50:35;8.85;;;6.88;;
29984;SDS011;17387;42.690;23.328;2023-07-16T08:53:01;12.00;;;8.88;;
29984;SDS011;17387;42.690;23.328;2023-07-16T08:55:26;16.07;;;12.30;;
29984;SDS011;17387;42.690;23.328;2023-07-16T08:57:52;11.18;;;7.88;;
29984;SDS011;17387;42.690;23.328;2023-07-16T09:00:18;10.30;;;7.97;;
29984;SDS011;17387;42.690;23.328;2023-07-16T09:02:43;10.07;;;7.28;;
29984;SDS011;17387;42.690;23.328;2023-07-16T09:05:09;11.53;;;9.80;;
29984;SDS011;17387;42.690;23.328;2023-07-16T09:07:35;9.68;;;7.68;;
29984;SDS011;17387;42.690;23.328;2023-07-16T09:10:00;10.30;;;7.15;;
29984;SDS011;17387;42.690;23.328;2023-07-16T09:12:28;13.02;;;8.45;;
29984;SDS011;17387;42.690;23.328;2023-07-16T09:14:56;10.45;;;7.07;;
29984;SDS011;17387;42.690;23.328;2023-07-16T09:17:22;9.90;;;7.32;;
29984;SDS011;17387;42.690;23.328;2023-07-16T09:19:49;10.38;;;7.50;;
29984;SDS011;17387;42.690;23.328;2023-07-16T09:22:16;11.70;;;9.10;;
29984;SDS011;17387;42.690;23.328;2023-07-16T09:24:43;13.10;;;8.38;;
29984;SDS011;17387;42.690;23.328;2023-07-16T09:27:10;15.25;;;10.02;;
29984;SDS011;17387;42.690;23.328;2023-07-16T09:29:37;10.60;;;8.63;;
29984;SDS011;17387;42.690;23.328;2023-07-16T09:32:03;11.38;;;8.30;;
29984;SDS011;17387;42.690;23.328;2023-07-16T09:34:28;8.68;;;7.68;;
29984;SDS011;17387;42.690;23.328;2023-07-16T09:36:54;15.80;;;7.93;;
29984;SDS011;17387;42.690;23.328;2023-07-16T09:39:25;14.18;;;8.32;;
29984;SDS011;17387;42.690;23.328;2023-07-16T09:41:51;15.63;;;10.23;;
29984;SDS011;17387;42.690;23.328;2023-07-16T09:44:16;11.50;;;9.35;;
29984;SDS011;17387;42.690;23.328;2023-07-16T09:46:42;11.15;;;8.57;;
29984;SDS011;17387;42.690;23.328;2023-07-16T09:49:08;10.07;;;8.50;;
29984;SDS011;17387;42.690;23.328;2023-07-16T09:51:37;12.25;;;8.88;;
29984;SDS011;17387;42.690;23.328;2023-07-16T09:54:03;10.52;;;8.52;;
29984;SDS011;17387;42.690;23.328;2023-07-16T09:56:33;11.38;;;9.48;;
29984;SDS011;17387;42.690;23.328;2023-07-16T09:59:01;12.23;;;9.13;;
29984;SDS011;17387;42.690;23.328;2023-07-16T10:01:28;14.82;;;9.63;;
29984;SDS011;17387;42.690;23.328;2023-07-16T10:03:54;9.95;;;8.82;;
29984;SDS011;17387;42.690;23.328;2023-07-16T10:06:19;12.73;;;9.50;;
29984;SDS011;17387;42.690;23.328;2023-07-16T10:08:48;12.57;;;9.57;;
29984;SDS011;17387;42.690;23.328;2023-07-16T10:11:17;17.17;;;11.23;;
29984;SDS011;17387;42.690;23.328;2023-07-16T10:13:42;19.88;;;9.85;;
29984;SDS011;17387;42.690;23.328;2023-07-16T10:16:19;20.83;;;12.70;;
29984;SDS011;17387;42.690;23.328;2023-07-16T10:19:02;12.52;;;9.35;;
29984;SDS011;17387;42.690;23.328;2023-07-16T10:21:27;12.10;;;9.90;;
29984;SDS011;17387;42.690;23.328;2023-07-16T10:23:57;11.27;;;9.00;;
29984;SDS011;17387;42.690;23.328;2023-07-16T10:26:25;12.27;;;9.25;;
29984;SDS011;17387;42.690;23.328;2023-07-16T10:28:51;11.25;;;9.18;;
29984;SDS011;17387;42.690;23.328;2023-07-16T10:31:17;9.87;;;8.70;;
29984;SDS011;17387;42.690;23.328;2023-07-16T10:33:42;11.38;;;8.50;;
29984;SDS011;17387;42.690;23.328;2023-07-16T10:36:10;15.98;;;9.13;;
29984;SDS011;17387;42.690;23.328;2023-07-16T10:38:42;15.05;;;9.60;;
29984;SDS011;17387;42.690;23.328;2023-07-16T10:41:08;14.18;;;10.02;;
29984;SDS011;17387;42.690;23.328;2023-07-16T10:43:33;11.03;;;9.83;;
29984;SDS011;17387;42.690;23.328;2023-07-16T10:45:58;11.50;;;9.00;;
29984;SDS011;17387;42.690;23.328;2023-07-16T10:48:26;13.43;;;9.60;;
29984;SDS011;17387;42.690;23.328;2023-07-16T10:50:53;11.38;;;9.23;;
29984;SDS011;17387;42.690;23.328;2023-07-16T10:53:19;11.38;;;9.05;;
29984;SDS011;17387;42.690;23.328;2023-07-16T10:55:44;9.30;;;8.40;;
29984;SDS011;17387;42.690;23.328;2023-07-16T10:58:09;14.90;;;9.57;;
29984;SDS011;17387;42.690;23.328;2023-07-16T11:00:39;19.15;;;9.27;;
29984;SDS011;17387;42.690;23.328;2023-07-16T11:03:04;12.25;;;10.70;;
29984;SDS011;17387;42.690;23.328;2023-07-16T11:05:29;9.90;;;8.48;;
29984;SDS011;17387;42.690;23.328;2023-07-16T11:07:54;11.67;;;9.13;;
29984;SDS011;17387;42.690;23.328;2023-07-16T11:10:20;12.75;;;9.70;;
29984;SDS011;17387;42.690;23.328;2023-07-16T11:12:49;13.32;;;9.55;;
29984;SDS011;17387;42.690;23.328;2023-07-16T11:15:15;16.85;;;11.88;;
29984;SDS011;17387;42.690;23.328;2023-07-16T11:17:40;12.57;;;9.80;;
29984;SDS011;17387;42.690;23.328;2023-07-16T11:20:09;19.88;;;12.50;;
29984;SDS011;17387;42.690;23.328;2023-07-16T11:22:36;13.60;;;9.90;;
29984;SDS011;17387;42.690;23.328;2023-07-16T11:25:02;13.32;;;8.90;;
29984;SDS011;17387;42.690;23.328;2023-07-16T11:27:29;15.80;;;9.68;;
29984;SDS011;17387;42.690;23.328;2023-07-16T11:29:55;11.38;;;9.98;;
29984;SDS011;17387;42.690;23.328;2023-07-16T11:34:55;10.13;;;9.13;;
29984;SDS011;17387;42.690;23.328;2023-07-16T11:37:21;12.35;;;8.75;;
29984;SDS011;17387;42.690;23.328;2023-07-16T11:39:47;15.43;;;8.80;;
29984;SDS011;17387;42.690;23.328;2023-07-16T11:42:12;12.45;;;9.43;;
29984;SDS011;17387;42.690;23.328;2023-07-16T11:44:38;11.55;;;9.40;;
29984;SDS011;17387;42.690;23.328;2023-07-16T11:47:03;11.80;;;9.40;;
29984;SDS011;17387;42.690;23.328;2023-07-16T11:49:29;13.38;;;9.32;;
29984;SDS011;17387;42.690;23.328;2023-07-16T11:51:54;14.85;;;9.25;;
29984;SDS011;17387;42.690;23.328;2023-07-16T11:54:19;10.20;;;9.00;;
29984;SDS011;17387;42.690;23.328;2023-07-16T11:56:45;11.25;;;9.18;;
29984;SDS011;17387;42.690;23.328;2023-07-16T11:59:16;15.13;;;8.85;;
29984;SDS011;17387;42.690;23.328;2023-07-16T12:01:45;11.98;;;8.60;;
29984;SDS011;17387;42.690;23.328;2023-07-16T12:04:10;11.40;;;8.35;;
29984;SDS011;17387;42.690;23.328;2023-07-16T12:06:35;12.57;;;8.07;;
29984;SDS011;17387;42.690;23.328;2023-07-16T12:09:10;15.57;;;9.10;;
29984;SDS011;17387;42.690;23.328;2023-07-16T12:11:35;13.55;;;9.10;;
29984;SDS011;17387;42.690;23.328;2023-07-16T12:14:02;13.35;;;9.10;;
29984;SDS011;17387;42.690;23.328;2023-07-16T12:16:28;12.37;;;9.23;;
29984;SDS011;17387;42.690;23.328;2023-07-16T12:18:53;13.60;;;8.88;;
29984;SDS011;17387;42.690;23.328;2023-07-16T12:21:18;11.80;;;8.83;;
29984;SDS011;17387;42.690;23.328;2023-07-16T12:23:44;10.60;;;8.73;;
29984;SDS011;17387;42.690;23.328;2023-07-16T12:26:09;10.93;;;9.35;;
29984;SDS011;17387;42.690;23.328;2023-07-16T12:28:34;15.10;;;11.10;;
29984;SDS011;17387;42.690;23.328;2023-07-16T12:31:00;10.00;;;8.90;;
29984;SDS011;17387;42.690;23.328;2023-07-16T12:33:25;13.32;;;8.82;;
29984;SDS011;17387;42.690;23.328;2023-07-16T12:35:50;15.15;;;10.93;;
29984;SDS011;17387;42.690;23.328;2023-07-16T12:38:16;15.73;;;11.80;;
29984;SDS011;17387;42.690;23.328;2023-07-16T12:40:41;15.20;;;10.53;;
29984;SDS011;17387;42.690;23.328;2023-07-16T12:43:06;15.87;;;9.10;;
29984;SDS011;17387;42.690;23.328;2023-07-16T12:45:32;10.70;;;9.00;;
29984;SDS011;17387;42.690;23.328;2023-07-16T12:47:57;13.95;;;9.45;;
29984;SDS011;17387;42.690;23.328;2023-07-16T12:50:23;10.65;;;8.75;;
29984;SDS011;17387;42.690;23.328;2023-07-16T12:52:55;12.43;;;8.02;;
29984;SDS011;17387;42.690;23.328;2023-07-16T12:55:21;14.33;;;8.97;;
29984;SDS011;17387;42.690;23.328;2023-07-16T12:57:46;12.33;;;9.20;;
29984;SDS011;17387;42.690;23.328;2023-07-16T13:00:11;11.60;;;8.37;;
29984;SDS011;17387;42.690;23.328;2023-07-16T13:02:38;11.48;;;8.05;;
29984;SDS011;17387;42.690;23.328;2023-07-16T13:05:03;9.77;;;7.45;;
29984;SDS011;17387;42.690;23.328;2023-07-16T13:07:29;11.82;;;8.65;;
29984;SDS011;17387;42.690;23.328;2023-07-16T13:09:55;16.20;;;9.88;;
29984;SDS011;17387;42.690;23.328;2023-07-16T13:12:20;11.70;;;7.90;;
29984;SDS011;17387;42.690;23.328;2023-07-16T13:14:45;12.60;;;7.37;;
29984;SDS011;17387;42.690;23.328;2023-07-16T13:17:11;9.97;;;7.90;;
29984;SDS011;17387;42.690;23.328;2023-07-16T13:19:36;11.32;;;7.95;;
29984;SDS011;17387;42.690;23.328;2023-07-16T13:22:01;9.60;;;7.83;;
29984;SDS011;17387;42.690;23.328;2023-07-16T13:24:27;13.37;;;8.03;;
29984;SDS011;17387;42.690;23.328;2023-07-16T13:26:52;13.75;;;8.07;;
29984;SDS011;17387;42.690;23.328;2023-07-16T13:29:17;8.40;;;7.50;;
29984;SDS011;17387;42.690;23.328;2023-07-16T13:31:43;11.47;;;8.00;;
29984;SDS011;17387;42.690;23.328;2023-07-16T13:34:08;8.67;;;7.40;;
29984;SDS011;17387;42.690;23.328;2023-07-16T13:36:33;9.77;;;7.43;;
29984;SDS011;17387;42.690;23.328;2023-07-16T13:38:58;9.97;;;7.67;;
29984;SDS011;17387;42.690;23.328;2023-07-16T13:41:23;14.87;;;10.73;;
29984;SDS011;17387;42.690;23.328;2023-07-16T13:43:49;11.60;;;8.57;;
29984;SDS011;17387;42.690;23.328;2023-07-16T13:46:14;11.77;;;7.30;;
29984;SDS011;17387;42.690;23.328;2023-07-16T13:48:39;10.33;;;7.20;;
29984;SDS011;17387;42.690;23.328;2023-07-16T13:51:05;10.73;;;7.95;;
29984;SDS011;17387;42.690;23.328;2023-07-16T13:53:30;16.07;;;12.27;;
29984;SDS011;17387;42.690;23.328;2023-07-16T13:55:56;8.48;;;7.60;;
29984;SDS011;17387;42.690;23.328;2023-07-16T13:58:21;10.60;;;7.30;;
29984;SDS011;17387;42.690;23.328;2023-07-16T14:00:46;11.07;;;7.70;;
29984;SDS011;17387;42.690;23.328;2023-07-16T14:03:11;11.87;;;8.10;;
29984;SDS011;17387;42.690;23.328;2023-07-16T14:05:37;11.20;;;7.50;;
29984;SDS011;17387;42.690;23.328;2023-07-16T14:08:04;10.45;;;7.93;;
29984;SDS011;17387;42.690;23.328;2023-07-16T14:10:30;12.00;;;7.95;;
29984;SDS011;17387;42.690;23.328;2023-07-16T14:12:55;13.93;;;9.20;;
29984;SDS011;17387;42.690;23.328;2023-07-16T14:15:20;9.88;;;7.82;;
29984;SDS011;17387;42.690;23.328;2023-07-16T14:17:45;10.10;;;8.03;;
29984;SDS011;17387;42.690;23.328;2023-07-16T14:20:11;13.87;;;7.87;;
29984;SDS011;17387;42.690;23.328;2023-07-16T14:22:36;12.87;;;7.47;;